Time;durP1;ratioP1;P1;durP2;ratioP2;P2;SDS_P1;SDS_P2;PMS_P1;PMS_P2;Temp;Humidity;BMP_temperature;BMP_pressure;BME280_temperature;BME280_humidity;BME280_pressure;Samples;Min_cycle;Max_cycle;Signal;HPM_P1;HPM_P2
2022/09/15 00:02:02;;;;;;;;;;;;;;;16.98;46.58;100320.84;5078915;28;1158;-57
2022/09/15 00:04:28;;;;;;;;;;;;;;;17.84;47.27;100316.69;5078284;28;1914;-57
2022/09/15 00:06:53;;;;;;;;;;;;;;;17.31;47.60;100312.88;5076514;28;1432;-57
2022/09/15 00:09:18;;;;;;;;;;;;;;;17.18;47.21;100313.53;5058529;28;1139;-57
2022/09/15 00:11:44;;;;;;;;;;;;;;;17.12;46.78;100325.69;5071411;28;1015;-57
2022/09/15 00:14:09;;;;;;;;;;;;;;;17.06;46.55;100333.16;5078256;28;1136;-57
2022/09/15 00:16:35;;;;;;;;;;;;;;;17.03;46.32;100323.56;5077555;28;1792;-56
2022/09/15 00:19:00;;;;;;;;;;;;;;;16.94;46.27;100333.50;5078325;28;1186;-57
2022/09/15 00:21:27;;;;;;;;;;;;;;;16.97;45.87;100323.88;5068253;28;1049;-57
2022/09/15 00:23:53;;;;;;;;;;;;;;;17.96;46.76;100328.13;5073768;28;1984;-56
2022/09/15 00:26:19;;;;;;;;;;;;;;;17.32;47.35;100325.50;5077283;28;1440;-56
2022/09/15 00:28:45;;;;;;;;;;;;;;;17.19;47.00;100331.66;5078060;28;1158;-56
2022/09/15 00:31:12;;;;;;;;;;;;;;;17.16;46.71;100326.75;5077903;28;1152;-56
2022/09/15 00:33:37;;;;;;;;;;;;;;;17.09;46.36;100322.41;5078067;28;1207;-57
2022/09/15 00:36:03;;;;;;;;;;;;;;;17.03;46.16;100323.56;5065124;28;1163;-57
2022/09/15 00:38:29;;;;;;;;;;;;;;;16.97;45.87;100318.38;5078245;28;1239;-57
2022/09/15 00:40:55;;;;;;;;;;;;;;;18.00;46.73;100314.63;5076807;28;1441;-56
2022/09/15 00:43:22;;;;;;;;;;;;;;;17.31;47.65;100312.88;5069574;28;1922;-56
2022/09/15 00:45:47;;;;;;;;;;;;;;;17.24;46.98;100310.47;5049837;28;1198;-57
2022/09/15 00:48:16;;;;;;;;;;;;;;;17.10;46.65;100315.81;5076121;28;1468;-56
2022/09/15 00:50:43;;;;;;;;;;;;;;;17.09;46.56;100314.16;5059547;28;1182;-56
2022/09/15 00:53:09;;;;;;;;;;;;;;;17.04;46.19;100314.22;5059914;28;1218;-56
2022/09/15 00:55:39;;;;;;;;;;;;;;;17.81;46.70;100315.38;5077372;28;1194;-56
2022/09/15 00:58:10;;;;;;;;;;;;;;;17.47;47.32;100294.28;5059658;28;1274;-56
2022/09/15 01:00:35;;;;;;;;;;;;;;;17.32;46.69;100286.19;5046031;28;1144;-56
2022/09/15 01:03:01;;;;;;;;;;;;;;;17.20;46.64;100289.34;5077411;28;1112;-56
2022/09/15 01:05:28;;;;;;;;;;;;;;;17.06;46.32;100290.00;5059705;28;1905;-56
2022/09/15 01:07:58;;;;;;;;;;;;;;;17.00;46.23;100280.19;5059805;28;1135;-56
2022/09/15 01:10:37;;;;;;;;;;;;;;;16.99;45.85;100278.53;5057149;28;1485;-55
2022/09/15 01:13:03;;;;;;;;;;;;;;;17.95;47.02;100271.50;5077402;28;1190;-56
2022/09/15 01:15:34;;;;;;;;;;;;;;;17.36;47.48;100270.78;5076114;28;1480;-56
2022/09/15 01:18:10;;;;;;;;;;;;;;;17.30;46.94;100272.75;5076779;28;1131;-57
2022/09/15 01:20:36;;;;;;;;;;;;;;;17.13;46.74;100261.41;5056513;28;1540;-55
2022/09/15 01:23:16;;;;;;;;;;;;;;;17.22;46.24;100262.41;5061614;28;1234;-56
2022/09/15 01:25:42;;;;;;;;;;;;;;;17.14;45.99;100260.28;5076775;28;1978;-55
2022/09/15 01:28:19;;;;;;;;;;;;;;;17.02;45.86;100260.69;5076000;28;1156;-55
2022/09/15 01:30:46;;;;;;;;;;;;;;;16.99;45.69;100259.31;5059165;28;1136;-55
2022/09/15 01:33:11;;;;;;;;;;;;;;;16.99;45.41;100256.56;5058369;28;1140;-55
2022/09/15 01:35:58;;;;;;;;;;;;;;;17.06;46.05;100257.06;5067449;28;1131;-55
2022/09/15 01:38:23;;;;;;;;;;;;;;;17.48;46.80;100262.13;5059083;28;1160;-55
2022/09/15 01:40:51;;;;;;;;;;;;;;;17.14;46.85;100257.53;5076665;28;1144;-55
2022/09/15 01:43:17;;;;;;;;;;;;;;;17.08;46.29;100249.34;5058535;28;1132;-56
2022/09/15 01:45:42;;;;;;;;;;;;;;;17.08;46.16;100245.78;5057286;28;1977;-56
2022/09/15 01:48:08;;;;;;;;;;;;;;;17.05;45.86;100255.41;5064934;28;1127;-56
2022/09/15 01:50:35;;;;;;;;;;;;;;;16.94;45.64;100251.13;5076512;28;1872;-56
2022/09/15 01:53:01;;;;;;;;;;;;;;;17.76;46.85;100247.47;5076556;28;1202;-56
2022/09/15 01:55:35;;;;;;;;;;;;;;;17.19;47.45;100250.06;5076389;28;1657;-55
2022/09/15 01:58:01;;;;;;;;;;;;;;;17.17;46.58;100245.97;5047961;28;1393;-56
2022/09/15 02:00:28;;;;;;;;;;;;;;;17.03;46.42;100254.09;5048214;28;1610;-56
2022/09/15 02:02:57;;;;;;;;;;;;;;;17.00;46.10;100241.75;5036095;28;1124;-55
2022/09/15 02:05:24;;;;;;;;;;;;;;;17.04;45.72;100247.47;5046763;28;1918;-56
2022/09/15 02:08:00;;;;;;;;;;;;;;;16.86;45.94;100247.06;5056414;28;1164;-56
2022/09/15 02:10:29;;;;;;;;;;;;;;;17.01;45.37;100237.91;5038733;28;1124;-56
2022/09/15 02:13:02;;;;;;;;;;;;;;;16.90;45.55;100236.31;5030202;28;942;-55
2022/09/15 02:15:28;;;;;;;;;;;;;;;16.86;45.40;100236.06;5056264;28;1156;-55
2022/09/15 02:17:54;;;;;;;;;;;;;;;16.78;45.53;100228.44;5038586;28;1183;-55
2022/09/15 02:20:23;;;;;;;;;;;;;;;17.54;46.52;100230.72;5038639;28;1121;-55
2022/09/15 02:22:52;;;;;;;;;;;;;;;17.13;46.91;100226.50;5056548;28;1222;-56
2022/09/15 02:25:23;;;;;;;;;;;;;;;17.03;46.57;100226.63;5038479;28;1910;-55
2022/09/15 02:27:49;;;;;;;;;;;;;;;16.96;46.08;100226.94;5038666;28;1144;-55
2022/09/15 02:30:15;;;;;;;;;;;;;;;17.75;46.85;100223.88;5038655;28;1160;-56
2022/09/15 02:32:44;;;;;;;;;;;;;;;17.22;47.12;100229.41;5038535;28;1183;-55
2022/09/15 02:35:09;;;;;;;;;;;;;;;17.03;47.06;100224.69;5054459;28;1206;-55
2022/09/15 02:37:35;;;;;;;;;;;;;;;17.12;46.49;100232.28;5052654;28;1184;-55
2022/09/15 02:40:00;;;;;;;;;;;;;;;16.98;46.29;100235.69;5041041;28;1446;-56
2022/09/15 02:42:27;;;;;;;;;;;;;;;17.08;45.89;100232.88;5042404;28;1160;-56
2022/09/15 02:44:52;;;;;;;;;;;;;;;17.54;46.78;100236.22;5059815;28;1914;-56
2022/09/15 02:47:18;;;;;;;;;;;;;;;17.19;47.02;100236.31;5057739;28;1140;-56
2022/09/15 02:49:43;;;;;;;;;;;;;;;17.05;46.88;100232.63;5054352;28;1183;-56
2022/09/15 02:52:08;;;;;;;;;;;;;;;17.14;45.92;100236.38;5060188;28;1147;-56
2022/09/15 02:54:34;;;;;;;;;;;;;;;17.96;46.46;100234.59;5059641;28;1207;-56
2022/09/15 02:57:00;;;;;;;;;;;;;;;17.41;47.17;100240.50;5061686;28;1163;-56
2022/09/15 02:59:25;;;;;;;;;;;;;;;17.20;46.61;100245.41;5071351;28;1827;-56
2022/09/15 03:01:51;;;;;;;;;;;;;;;17.09;46.22;100233.69;5079760;28;1131;-56
2022/09/15 03:04:17;;;;;;;;;;;;;;;17.11;45.85;100245.22;5079738;28;1898;-56
2022/09/15 03:06:42;;;;;;;;;;;;;;;17.68;46.44;100248.13;5078692;28;1431;-56
2022/09/15 03:09:08;;;;;;;;;;;;;;;17.51;47.08;100250.56;5079310;28;1479;-56
2022/09/15 03:11:33;;;;;;;;;;;;;;;17.24;47.10;100249.19;5074679;28;1435;-56
2022/09/15 03:14:00;;;;;;;;;;;;;;;17.21;46.36;100245.09;5077617;28;1408;-56
2022/09/15 03:16:25;;;;;;;;;;;;;;;17.05;46.31;100258.16;5079109;28;1170;-56
2022/09/15 03:18:52;;;;;;;;;;;;;;;17.05;45.69;100249.91;5079592;28;1203;-56
2022/09/15 03:21:18;;;;;;;;;;;;;;;17.02;45.74;100245.00;5079772;28;1175;-57
2022/09/15 03:23:43;;;;;;;;;;;;;;;17.01;45.31;100254.38;5076436;28;1901;-56
2022/09/15 03:26:09;;;;;;;;;;;;;;;16.88;45.42;100260.50;5079289;28;1128;-57
2022/09/15 03:28:35;;;;;;;;;;;;;;;17.76;46.58;100250.22;5079533;28;1206;-56
2022/09/15 03:31:01;;;;;;;;;;;;;;;17.27;47.03;100251.34;5077353;28;1217;-56
2022/09/15 03:33:26;;;;;;;;;;;;;;;17.11;46.91;100256.19;5077183;28;1123;-57
2022/09/15 03:35:52;;;;;;;;;;;;;;;17.12;45.94;100249.56;5066218;28;1250;-60
2022/09/15 03:38:17;;;;;;;;;;;;;;;17.01;46.02;100250.78;5070840;28;1237;-61
2022/09/15 03:40:42;;;;;;;;;;;;;;;17.84;46.38;100257.03;5079277;28;1238;-58
2022/09/15 03:43:11;;;;;;;;;;;;;;;17.33;47.10;100261.19;5079112;28;1115;-59
2022/09/15 03:45:36;;;;;;;;;;;;;;;17.29;46.59;100260.13;5078617;28;1980;-57
2022/09/15 03:48:03;;;;;;;;;;;;;;;17.07;46.27;100263.38;5068972;28;1373;-58
2022/09/15 03:50:28;;;;;;;;;;;;;;;18.00;46.42;100252.16;5078111;28;1215;-57
2022/09/15 03:52:54;;;;;;;;;;;;;;;17.40;47.11;100256.19;5067353;28;1135;-58
2022/09/15 03:55:19;;;;;;;;;;;;;;;17.19;46.99;100249.25;5069276;28;1147;-60
2022/09/15 03:57:45;;;;;;;;;;;;;;;17.14;46.89;100252.88;5078488;28;1202;-58
2022/09/15 04:00:10;;;;;;;;;;;;;;;17.98;47.05;100253.56;5078006;28;1151;-61
2022/09/15 04:02:36;;;;;;;;;;;;;;;17.50;47.56;100251.66;5078939;28;1140;-61
2022/09/15 04:05:01;;;;;;;;;;;;;;;17.34;46.86;100251.81;5078731;28;1922;-62
2022/09/15 04:07:27;;;;;;;;;;;;;;;17.42;47.07;100248.44;5078725;28;1151;-62
2022/09/15 04:09:53;;;;;;;;;;;;;;;17.31;47.82;100248.88;5078395;28;1171;-62
2022/09/15 04:12:18;;;;;;;;;;;;;;;17.28;47.14;100247.50;5078717;28;1155;-62
2022/09/15 04:14:44;;;;;;;;;;;;;;;17.24;46.64;100246.44;5078823;28;1143;-62
2022/09/15 04:17:10;;;;;;;;;;;;;;;17.23;46.40;100239.31;5078128;28;1155;-59
2022/09/15 04:19:36;;;;;;;;;;;;;;;17.19;46.59;100232.75;5078875;28;1166;-59
2022/09/15 04:22:01;;;;;;;;;;;;;;;18.04;48.08;100242.19;5064353;28;1230;-59
2022/09/15 04:24:26;;;;;;;;;;;;;;;14.68;55.74;100234.56;5077659;28;2005;-57
2022/09/15 04:26:52;;;;;;;;;;;;;;;16.42;49.07;100243.28;5078219;28;1154;-57
2022/09/15 04:29:18;;;;;;;;;;;;;;;17.64;49.49;100233.34;5078218;28;1277;-53
2022/09/15 04:31:43;;;;;;;;;;;;;;;17.22;48.72;100246.75;5077848;28;1147;-58
2022/09/15 04:34:09;;;;;;;;;;;;;;;17.07;48.05;100242.22;5078186;28;1171;-58
2022/09/15 04:36:34;;;;;;;;;;;;;;;17.06;47.51;100235.06;5077847;28;1139;-56
2022/09/15 04:39:00;;;;;;;;;;;;;;;16.91;46.78;100249.78;5077557;28;1198;-55
2022/09/15 04:41:25;;;;;;;;;;;;;;;17.51;47.46;100237.63;5078331;28;1186;-57
2022/09/15 04:43:51;;;;;;;;;;;;;;;17.51;48.18;100239.56;5064700;28;1901;-58
2022/09/15 04:46:17;;;;;;;;;;;;;;;17.22;47.89;100243.16;5077352;28;1174;-58
2022/09/15 04:48:44;;;;;;;;;;;;;;;17.10;47.36;100244.38;5059888;28;1198;-58
2022/09/15 04:51:11;;;;;;;;;;;;;;;17.08;46.87;100246.59;5077583;28;1226;-55
2022/09/15 04:53:36;;;;;;;;;;;;;;;17.90;47.45;100250.34;5077530;28;1494;-56
2022/09/15 04:56:03;;;;;;;;;;;;;;;17.62;48.11;100252.06;5077454;28;1163;-56
2022/09/15 04:58:28;;;;;;;;;;;;;;;17.34;47.56;100257.31;5077286;28;1291;-55
2022/09/15 05:00:53;;;;;;;;;;;;;;;17.15;47.36;100254.50;5076822;28;1229;-56
2022/09/15 05:03:19;;;;;;;;;;;;;;;17.23;46.68;100247.56;5077197;28;1139;-56
2022/09/15 05:05:46;;;;;;;;;;;;;;;18.00;47.44;100252.16;5077438;28;1902;-56
2022/09/15 05:08:12;;;;;;;;;;;;;;;17.43;48.06;100252.84;5077287;28;1163;-56
2022/09/15 05:10:38;;;;;;;;;;;;;;;17.25;47.32;100259.91;5077436;28;1186;-56
2022/09/15 05:13:04;;;;;;;;;;;;;;;17.23;46.89;100247.56;5077481;28;1260;-56
2022/09/15 05:15:29;;;;;;;;;;;;;;;17.05;46.63;100263.66;5076770;28;1209;-56
2022/09/15 05:17:54;;;;;;;;;;;;;;;17.04;46.34;100269.44;5077067;28;1154;-56
2022/09/15 05:20:20;;;;;;;;;;;;;;;17.03;46.08;100262.31;5077184;28;1135;-56
2022/09/15 05:22:45;;;;;;;;;;;;;;;17.25;46.50;100259.06;5077334;28;1209;-56
2022/09/15 05:25:11;;;;;;;;;;;;;;;17.60;47.42;100259.81;5069069;28;1914;-56
2022/09/15 05:27:38;;;;;;;;;;;;;;;17.32;47.15;100264.22;5075600;28;1163;-55
2022/09/15 05:30:04;;;;;;;;;;;;;;;17.20;46.89;100261.88;5076360;28;1108;-56
2022/09/15 05:32:29;;;;;;;;;;;;;;;17.02;46.81;100266.97;5059218;28;1123;-55
2022/09/15 05:34:55;;;;;;;;;;;;;;;17.05;46.17;100263.66;5076709;28;1206;-55
2022/09/15 05:37:20;;;;;;;;;;;;;;;16.97;46.30;100261.56;5076369;28;1140;-55
2022/09/15 05:39:46;;;;;;;;;;;;;;;17.90;46.63;100263.28;5076394;28;1139;-55
2022/09/15 05:42:11;;;;;;;;;;;;;;;17.73;47.66;100263.78;5076980;28;1127;-55
2022/09/15 05:44:37;;;;;;;;;;;;;;;17.66;48.10;100260.56;5076107;28;1921;-55
2022/09/15 05:47:02;;;;;;;;;;;;;;;17.48;48.70;100265.69;5076934;28;1147;-55
2022/09/15 05:49:28;;;;;;;;;;;;;;;17.36;49.26;100265.28;5076391;28;1115;-55
2022/09/15 05:51:53;;;;;;;;;;;;;;;17.25;49.50;100259.06;5058398;28;1295;-55
2022/09/15 05:54:19;;;;;;;;;;;;;;;17.12;50.31;100254.25;5076883;28;1209;-55
2022/09/15 05:56:44;;;;;;;;;;;;;;;17.13;50.06;100255.91;5076612;28;1174;-56
2022/09/15 05:59:10;;;;;;;;;;;;;;;17.03;50.44;100263.13;5076337;28;1354;-56
2022/09/15 06:01:35;;;;;;;;;;;;;;;16.99;50.78;100262.06;5075891;28;1206;-56
2022/09/15 06:04:01;;;;;;;;;;;;;;;17.00;50.73;100271.13;5076236;28;1914;-55
2022/09/15 06:06:26;;;;;;;;;;;;;;;16.90;51.25;100263.78;5076159;28;1253;-56
2022/09/15 06:08:54;;;;;;;;;;;;;;;16.84;51.51;100262.97;5058539;28;1617;-56
2022/09/15 06:11:23;;;;;;;;;;;;;;;16.84;51.61;100259.44;5076014;28;1248;-56
2022/09/15 06:13:49;;;;;;;;;;;;;;;16.78;51.64;100253.16;5075121;28;1234;-56
2022/09/15 06:16:18;;;;;;;;;;;;;;;16.75;52.06;100251.00;5076265;28;1218;-56
2022/09/15 06:18:44;;;;;;;;;;;;;;;16.66;52.15;100247.22;5077012;28;1170;-56
2022/09/15 06:21:09;;;;;;;;;;;;;;;16.61;52.32;100250.84;5075858;28;1111;-56
2022/09/15 06:23:35;;;;;;;;;;;;;;;16.62;52.56;100244.25;5076752;28;1914;-56
2022/09/15 06:26:08;;;;;;;;;;;;;;;16.59;52.59;100247.53;5076121;28;1143;-56
2022/09/15 06:28:34;;;;;;;;;;;;;;;16.55;52.86;100241.81;5076187;28;1187;-56
2022/09/15 06:30:59;;;;;;;;;;;;;;;16.53;52.82;100249.50;5076287;28;1186;-56
2022/09/15 06:33:26;;;;;;;;;;;;;;;16.55;52.70;100240.97;5076359;28;1147;-55
2022/09/15 06:35:51;;;;;;;;;;;;;;;16.49;52.90;100237.47;5076320;28;1218;-56
2022/09/15 06:38:17;;;;;;;;;;;;;;;16.42;53.09;100240.56;5076113;28;909;-56
2022/09/15 06:40:42;;;;;;;;;;;;;;;16.41;53.40;100241.66;5076318;28;1221;-55
2022/09/15 06:43:08;;;;;;;;;;;;;;;16.41;53.42;100246.28;5061744;28;1112;-56
2022/09/15 06:45:33;;;;;;;;;;;;;;;16.39;53.41;100237.53;5075701;28;1970;-56
2022/09/15 06:47:59;;;;;;;;;;;;;;;16.38;53.45;100249.63;5076328;28;1190;-56
2022/09/15 06:50:24;;;;;;;;;;;;;;;16.36;53.55;100240.88;5075621;28;1171;-56
2022/09/15 06:52:49;;;;;;;;;;;;;;;16.33;53.58;100245.00;5075642;28;1151;-56
2022/09/15 06:55:15;;;;;;;;;;;;;;;16.33;53.79;100246.94;5076108;28;1190;-55
2022/09/15 06:57:40;;;;;;;;;;;;;;;16.27;53.73;100248.03;5075951;28;1311;-56
2022/09/15 07:00:07;;;;;;;;;;;;;;;16.27;53.84;100251.63;5075416;28;1198;-56
2022/09/15 07:02:32;;;;;;;;;;;;;;;16.23;54.18;100245.88;5070943;28;950;-56
2022/09/15 07:04:58;;;;;;;;;;;;;;;16.19;54.32;100238.50;5076063;28;1980;-56
2022/09/15 07:07:23;;;;;;;;;;;;;;;16.25;53.94;100229.13;5076053;28;1143;-56
2022/09/15 07:09:49;;;;;;;;;;;;;;;16.20;54.30;100224.50;5076046;28;1243;-55
2022/09/15 07:12:14;;;;;;;;;;;;;;;16.19;54.10;100222.06;5075741;28;1111;-56
2022/09/15 07:14:40;;;;;;;;;;;;;;;17.30;51.82;100217.78;5074713;28;1123;-55
2022/09/15 07:17:05;;;;;;;;;;;;;;;17.14;52.31;100208.06;5075897;28;1217;-50
2022/09/15 07:19:31;;;;;;;;;;;;;;;16.78;53.55;100201.00;5075766;28;1151;-55
2022/09/15 07:21:56;;;;;;;;;;;;;;;16.65;53.58;100194.25;5075313;28;1191;-55
2022/09/15 07:24:22;;;;;;;;;;;;;;;16.55;54.22;100192.41;5075512;28;1897;-55
2022/09/15 07:26:47;;;;;;;;;;;;;;;16.55;53.96;100194.31;5073120;28;908;-53
2022/09/15 07:29:13;;;;;;;;;;;;;;;16.50;54.16;100194.38;5071110;28;1164;-55
2022/09/15 07:31:38;;;;;;;;;;;;;;;16.51;54.35;100202.34;5079024;28;1127;-55
2022/09/15 07:34:04;;;;;;;;;;;;;;;16.48;54.11;100208.41;5079117;28;1092;-55
2022/09/15 07:36:29;;;;;;;;;;;;;;;16.47;54.36;100195.78;5078875;28;1128;-55
2022/09/15 07:38:55;;;;;;;;;;;;;;;16.41;54.51;100194.16;5078943;28;989;-53
2022/09/15 07:41:21;;;;;;;;;;;;;;;16.41;54.45;100194.16;5079169;28;1124;-53
2022/09/15 07:43:47;;;;;;;;;;;;;;;16.41;54.42;100200.47;5078796;28;1901;-55
2022/09/15 07:46:13;;;;;;;;;;;;;;;16.35;54.57;100192.56;5079149;28;1222;-56
2022/09/15 07:48:38;;;;;;;;;;;;;;;16.36;54.72;100189.53;5078578;28;1174;-56
2022/09/15 07:51:04;;;;;;;;;;;;;;;16.39;54.52;100188.97;5078577;28;869;-56
2022/09/15 07:53:29;;;;;;;;;;;;;;;16.30;55.02;100190.69;5078943;28;1171;-56
2022/09/15 07:55:55;;;;;;;;;;;;;;;16.35;54.73;100198.88;5078731;28;1135;-57
2022/09/15 07:58:20;;;;;;;;;;;;;;;16.33;55.00;100184.63;5078002;28;1186;-53
2022/09/15 08:00:48;;;;;;;;;;;;;;;16.38;54.68;100186.50;5078423;28;1112;-55
2022/09/15 08:03:14;;;;;;;;;;;;;;;16.37;54.92;100187.63;5078636;28;872;-52
2022/09/15 08:05:40;;;;;;;;;;;;;;;16.35;54.88;100184.34;5078150;28;1913;-54
2022/09/15 08:08:05;;;;;;;;;;;;;;;16.30;54.97;100179.72;5078758;28;1178;-56
2022/09/15 08:10:31;;;;;;;;;;;;;;;16.25;55.43;100185.25;5078594;28;1139;-54
2022/09/15 08:12:59;;;;;;;;;;;;;;;16.31;55.22;100178.59;5078311;28;1127;-55
2022/09/15 08:15:24;;;;;;;;;;;;;;;16.31;54.98;100184.09;5078084;28;1194;-53
2022/09/15 08:17:50;;;;;;;;;;;;;;;16.27;55.42;100184.94;5078878;28;1195;-55
2022/09/15 08:20:15;;;;;;;;;;;;;;;16.31;55.18;100192.31;5077982;28;1127;-55
2022/09/15 08:22:41;;;;;;;;;;;;;;;16.29;55.28;100174.53;5078395;28;1123;-55
2022/09/15 08:25:07;;;;;;;;;;;;;;;16.29;55.26;100178.06;5077752;28;1977;-51
2022/09/15 08:27:32;;;;;;;;;;;;;;;16.29;55.51;100178.06;5065892;28;1102;-52
2022/09/15 08:29:58;;;;;;;;;;;;;;;17.60;52.82;100169.88;5078335;28;1162;-50
2022/09/15 08:32:23;;;;;;;;;;;;;;;17.07;54.01;100159.81;5077974;28;1131;-54
2022/09/15 08:34:48;;;;;;;;;;;;;;;16.82;54.71;100163.63;5077901;28;1116;-55
2022/09/15 08:37:14;;;;;;;;;;;;;;;16.70;55.27;100166.72;5077568;28;1139;-55
2022/09/15 08:39:40;;;;;;;;;;;;;;;16.70;55.04;100168.66;5075332;28;1119;-51
2022/09/15 08:42:05;;;;;;;;;;;;;;;16.60;55.53;100161.34;5077762;28;1209;-53
2022/09/15 08:44:37;;;;;;;;;;;;;;;16.60;55.36;100164.91;5077268;28;1905;-49
2022/09/15 08:47:12;;;;;;;;;;;;;;;16.60;55.61;100166.84;5064028;28;1095;-51
2022/09/15 08:49:48;;;;;;;;;;;;;;;16.60;55.65;100170.41;5077723;28;1234;-53
2022/09/15 08:52:33;;;;;;;;;;;;;;;16.56;55.70;100165.78;5046700;28;887;-54
2022/09/15 08:55:00;;;;;;;;;;;;;;;16.55;55.57;100156.75;5077138;28;1596;-53
2022/09/15 08:57:25;;;;;;;;;;;;;;;16.56;55.67;100155.63;5056280;28;1326;-50
2022/09/15 08:59:51;;;;;;;;;;;;;;;16.56;55.83;100155.63;5077678;28;1127;-51
2022/09/15 09:02:16;;;;;;;;;;;;;;;16.53;56.02;100147.16;5077011;28;1088;-53
2022/09/15 09:04:54;;;;;;;;;;;;;;;16.57;55.82;100156.44;5077628;28;1914;-54
2022/09/15 09:07:38;;;;;;;;;;;;;;;16.51;56.14;100152.09;5077103;28;1191;-51
2022/09/15 09:10:04;;;;;;;;;;;;;;;16.55;55.97;100154.00;5077690;28;1222;-50
2022/09/15 09:12:45;;;;;;;;;;;;;;;16.54;56.09;100148.78;5077141;28;1177;-46
2022/09/15 09:15:11;;;;;;;;;;;;;;;16.54;56.12;100130.38;5059224;28;1139;-52
2022/09/15 09:18:08;;;;;;;;;;;;;;;16.56;55.98;100149.31;5076707;28;1333;-50
2022/09/15 09:20:37;;;;;;;;;;;;;;;16.56;55.86;100127.34;5014894;28;1204;-50
2022/09/15 09:23:03;;;;;;;;;;;;;;;16.57;55.80;100139.97;5077320;28;1264;-52
2022/09/15 09:25:28;;;;;;;;;;;;;;;16.58;55.89;100141.63;5059230;28;1982;-55
2022/09/15 09:27:54;;;;;;;;;;;;;;;16.58;55.96;100136.94;5076114;28;932;-52
2022/09/15 09:30:20;;;;;;;;;;;;;;;16.56;56.13;100133.69;5059238;28;1163;-53
2022/09/15 09:32:51;;;;;;;;;;;;;;;16.58;55.93;100128.72;5077056;28;1131;-50
2022/09/15 09:35:24;;;;;;;;;;;;;;;16.62;56.16;100130.88;5076710;28;1151;-47
2022/09/15 09:37:51;;;;;;;;;;;;;;;16.56;56.24;100127.34;5077362;28;1191;-52
2022/09/15 09:40:16;;;;;;;;;;;;;;;16.62;56.15;100126.22;5055369;28;1009;-50
2022/09/15 09:42:42;;;;;;;;;;;;;;;16.57;56.38;100126.25;5076104;28;1104;-49
2022/09/15 09:45:09;;;;;;;;;;;;;;;16.59;56.32;100122.13;5072337;28;1909;-54
2022/09/15 09:47:35;;;;;;;;;;;;;;;16.60;56.23;100131.16;5066923;28;1206;-55
2022/09/15 09:50:01;;;;;;;;;;;;;;;16.62;56.22;100134.44;5058376;28;1128;-48
2022/09/15 09:52:36;;;;;;;;;;;;;;;16.63;56.28;100129.75;5076572;28;949;-50
2022/09/15 09:55:19;;;;;;;;;;;;;;;16.61;56.27;100130.06;5076748;28;1119;-55
2022/09/15 09:57:45;;;;;;;;;;;;;;;16.52;56.65;100132.63;5076232;28;1136;-55
2022/09/15 10:00:29;;;;;;;;;;;;;;;16.62;56.40;100131.69;5076962;28;1135;-50
2022/09/15 10:02:54;;;;;;;;;;;;;;;16.58;56.60;100122.41;5075976;28;1234;-49
2022/09/15 10:05:20;;;;;;;;;;;;;;;16.57;56.76;100123.50;5076261;28;1968;-54
2022/09/15 10:07:45;;;;;;;;;;;;;;;16.60;56.56;100112.75;5075999;28;1163;-51
2022/09/15 10:10:18;;;;;;;;;;;;;;;16.59;56.82;100113.88;5076201;28;1171;-53
2022/09/15 10:12:43;;;;;;;;;;;;;;;16.60;56.70;100112.75;5076394;28;1131;-53
2022/09/15 10:15:42;;;;;;;;;;;;;;;16.62;56.58;100109.75;5058405;28;1247;-53
2022/09/15 10:18:08;;;;;;;;;;;;;;;16.61;56.73;100102.59;5020622;28;1342;-53
2022/09/15 10:20:37;;;;;;;;;;;;;;;16.58;56.74;100097.72;5057994;28;1426;-53
2022/09/15 10:23:03;;;;;;;;;;;;;;;16.62;56.66;100108.91;5058176;28;1175;-55
2022/09/15 10:25:30;;;;;;;;;;;;;;;16.66;56.69;100104.47;5080726;28;1917;-54
2022/09/15 10:28:08;;;;;;;;;;;;;;;16.62;56.93;100096.03;5076061;28;1183;-56
2022/09/15 10:30:33;;;;;;;;;;;;;;;16.70;56.86;100105.53;5075344;28;1171;-55
2022/09/15 10:33:18;;;;;;;;;;;;;;;16.65;56.60;100098.19;5076040;28;1144;-55
2022/09/15 10:35:43;;;;;;;;;;;;;;;16.65;56.93;100095.44;5076299;28;1151;-53
2022/09/15 10:38:09;;;;;;;;;;;;;;;16.68;56.71;100108.56;5076033;28;1104;-57
2022/09/15 10:40:34;;;;;;;;;;;;;;;16.66;56.95;100097.06;5074728;28;1258;-55
2022/09/15 10:43:04;;;;;;;;;;;;;;;16.67;56.70;100090.47;5076069;28;1275;-55
2022/09/15 10:45:36;;;;;;;;;;;;;;;16.71;56.86;100087.97;5057891;28;1984;-55
2022/09/15 10:48:17;;;;;;;;;;;;;;;16.66;57.16;100075.13;5076203;28;1158;-55
2022/09/15 10:50:53;;;;;;;;;;;;;;;16.69;57.03;100071.78;5076648;28;1143;-55
2022/09/15 10:53:22;;;;;;;;;;;;;;;16.68;57.01;100063.84;5075998;28;1088;-52
2022/09/15 10:55:48;;;;;;;;;;;;;;;16.72;56.85;100076.69;5075905;28;1120;-50
2022/09/15 10:58:23;;;;;;;;;;;;;;;16.73;56.79;100078.31;5075849;28;1136;-51
2022/09/15 11:00:58;;;;;;;;;;;;;;;16.69;57.07;100055.31;5060801;28;1057;-47
2022/09/15 11:03:37;;;;;;;;;;;;;;;16.71;56.95;100055.81;5075129;28;1119;-55
2022/09/15 11:06:05;;;;;;;;;;;;;;;16.70;57.05;100051.44;5076925;28;1914;-49
2022/09/15 11:08:38;;;;;;;;;;;;;;;16.74;57.31;100044.25;5079610;28;1167;-48
2022/09/15 11:11:36;;;;;;;;;;;;;;;16.74;57.20;100044.25;5061199;28;1127;-51
2022/09/15 11:14:07;;;;;;;;;;;;;;;16.74;57.28;100047.00;5015213;28;1254;-51
2022/09/15 11:16:37;;;;;;;;;;;;;;;16.73;57.22;100048.13;5071483;28;1120;-49
2022/09/15 11:19:13;;;;;;;;;;;;;;;16.72;57.44;100048.41;5061503;28;1379;-49
2022/09/15 11:21:44;;;;;;;;;;;;;;;16.73;57.40;100039.88;5061858;28;1147;-47
2022/09/15 11:24:29;;;;;;;;;;;;;;;16.70;57.56;100039.66;5061319;28;1963;-49
2022/09/15 11:26:57;;;;;;;;;;;;;;;16.72;57.53;100032.75;5079711;28;1179;-48
2022/09/15 11:29:25;;;;;;;;;;;;;;;16.77;57.21;100032.72;5077478;28;922;-48
2022/09/15 11:31:51;;;;;;;;;;;;;;;16.74;57.64;100030.53;5078966;28;1186;-49
2022/09/15 11:34:20;;;;;;;;;;;;;;;16.77;57.38;100026.38;5079159;28;1127;-47
2022/09/15 11:37:07;;;;;;;;;;;;;;;16.80;57.37;100024.97;5079491;28;1183;-53
2022/09/15 11:39:48;;;;;;;;;;;;;;;16.74;57.32;100025.03;5078313;28;1386;-50
2022/09/15 11:42:23;;;;;;;;;;;;;;;16.77;57.44;100029.13;5079214;28;1490;-50
2022/09/15 11:44:49;;;;;;;;;;;;;;;16.81;57.27;100029.38;5078934;28;1914;-49
2022/09/15 11:47:15;;;;;;;;;;;;;;;16.77;57.63;100023.63;5061135;28;985;-48
2022/09/15 11:49:43;;;;;;;;;;;;;;;16.83;57.68;100021.63;5079212;28;1127;-50
2022/09/15 11:52:28;;;;;;;;;;;;;;;16.84;57.50;100023.28;5077810;28;894;-47
2022/09/15 11:54:55;;;;;;;;;;;;;;;16.83;57.46;100007.91;5078805;28;1194;-49
2022/09/15 11:57:25;;;;;;;;;;;;;;;16.84;57.58;100017.78;5061228;28;1152;-52
2022/09/15 12:00:04;;;;;;;;;;;;;;;16.80;57.58;100017.56;5061265;28;1088;-50
2022/09/15 12:02:50;;;;;;;;;;;;;;;16.86;57.59;100010.09;5078167;28;1172;-47
2022/09/15 12:05:16;;;;;;;;;;;;;;;16.82;57.51;100020.03;5064930;28;1966;-46
2022/09/15 12:07:46;;;;;;;;;;;;;;;16.84;57.76;100017.78;5078872;28;1166;-48
2022/09/15 12:10:12;;;;;;;;;;;;;;;16.84;57.58;100017.78;5078124;28;1158;-50
2022/09/15 12:12:38;;;;;;;;;;;;;;;16.84;57.62;100023.28;5077350;28;1178;-53
2022/09/15 12:15:04;;;;;;;;;;;;;;;16.84;57.70;100013.09;5061012;28;1128;-50
2022/09/15 12:17:34;;;;;;;;;;;;;;;16.85;57.53;100005.72;5066144;28;1139;-45
2022/09/15 12:20:02;;;;;;;;;;;;;;;16.82;57.77;100007.09;5061082;28;1124;-44
2022/09/15 12:22:30;;;;;;;;;;;;;;;16.81;57.89;100013.69;5078344;28;1108;-48
2022/09/15 12:25:05;;;;;;;;;;;;;;;16.85;57.87;100011.19;5059932;28;1902;-53
2022/09/15 12:27:30;;;;;;;;;;;;;;;16.86;57.93;100018.34;5078570;28;1389;-51
2022/09/15 12:29:56;;;;;;;;;;;;;;;16.85;57.91;99998.28;5069316;28;927;-53
2022/09/15 12:32:26;;;;;;;;;;;;;;;16.83;58.11;100000.50;5077974;28;1167;-50
2022/09/15 12:35:10;;;;;;;;;;;;;;;16.85;58.07;99997.47;5078423;28;1115;-52
2022/09/15 12:37:36;;;;;;;;;;;;;;;16.85;57.74;100000.22;5076694;28;1308;-52
2022/09/15 12:40:04;;;;;;;;;;;;;;;16.85;57.90;100008.44;5074236;28;1076;-54
2022/09/15 12:42:32;;;;;;;;;;;;;;;16.86;57.76;99991.69;5074436;28;1135;-45
2022/09/15 12:45:02;;;;;;;;;;;;;;;16.87;57.87;99993.31;5060428;28;1902;-54
2022/09/15 12:47:40;;;;;;;;;;;;;;;16.91;57.86;99985.31;5077361;28;1226;-45
2022/09/15 12:50:14;;;;;;;;;;;;;;;16.88;57.93;99988.63;5078017;28;1119;-48
2022/09/15 12:52:47;;;;;;;;;;;;;;;16.90;57.80;99979.03;5070065;28;1143;-50